createdAt,value
2022-11-04T00:00:28.697Z,11.80
2022-11-04T00:02:58.339Z,12.07
2022-11-04T00:05:26.001Z,11.13
2022-11-04T00:08:13.069Z,11.30
2022-11-04T00:10:58.425Z,11.00
2022-11-04T00:13:26.393Z,11.80
2022-11-04T00:16:11.698Z,11.67
2022-11-04T00:18:40.610Z,12.13
2022-11-04T00:21:25.735Z,11.30
2022-11-04T00:24:12.641Z,12.23
2022-11-04T00:26:57.791Z,12.13
2022-11-04T00:29:25.967Z,12.10
2022-11-04T00:32:11.294Z,12.40
2022-11-04T00:34:39.907Z,11.80
2022-11-04T00:37:07.733Z,12.13
2022-11-04T00:39:37.181Z,11.90
2022-11-04T00:42:09.089Z,12.67
2022-11-04T00:44:36.958Z,12.40
2022-11-04T00:47:04.769Z,13.60
2022-11-04T00:49:32.990Z,13.00
2022-11-04T00:52:00.475Z,13.03
2022-11-04T00:54:28.618Z,13.00
2022-11-04T00:56:57.590Z,13.43
2022-11-04T00:59:25.704Z,13.57
2022-11-04T01:01:53.312Z,13.00
2022-11-04T01:04:21.494Z,13.70
2022-11-04T01:06:49.256Z,13.30
2022-11-04T01:09:17.048Z,13.83
2022-11-04T01:11:44.604Z,14.20
2022-11-04T01:14:13.596Z,13.47
2022-11-04T01:16:41.121Z,13.90
2022-11-04T01:19:09.389Z,13.10
2022-11-04T01:21:36.894Z,14.07
2022-11-04T01:24:05.448Z,15.67
2022-11-04T01:26:33.137Z,14.83
2022-11-04T01:29:01.121Z,14.27
2022-11-04T01:31:30.607Z,14.70
2022-11-04T01:33:59.783Z,14.00
2022-11-04T01:36:27.478Z,13.83
2022-11-04T01:38:55.828Z,14.50
2022-11-04T01:41:24.882Z,13.70
2022-11-04T01:43:53.308Z,14.33
2022-11-04T01:46:27.088Z,14.40
2022-11-04T01:49:00.463Z,13.70
2022-11-04T01:51:29.161Z,12.70
2022-11-04T01:53:57.155Z,13.50
2022-11-04T01:56:26.545Z,13.30
2022-11-04T01:58:56.881Z,13.33
2022-11-04T02:01:24.693Z,12.80
2022-11-04T02:03:54.086Z,13.40
2022-11-04T02:06:24.295Z,14.20
2022-11-04T02:08:51.765Z,13.70
2022-11-04T02:11:33.461Z,13.33
2022-11-04T02:14:01.953Z,14.07
2022-11-04T02:16:36.040Z,13.70
2022-11-04T02:19:07.397Z,15.03
2022-11-04T02:21:49.635Z,15.70
2022-11-04T02:24:47.504Z,15.03
2022-11-04T02:27:31.306Z,13.73
2022-11-04T02:30:06.894Z,13.50
2022-11-04T02:32:42.865Z,13.93
2022-11-04T02:35:14.850Z,15.40
2022-11-04T02:37:48.558Z,15.53
2022-11-04T02:40:21.895Z,15.00
2022-11-04T02:42:54.122Z,15.50
2022-11-04T02:45:25.007Z,15.97
2022-11-04T02:47:55.476Z,14.70
2022-11-04T02:50:26.562Z,13.43
2022-11-04T02:52:57.134Z,15.10
2022-11-04T02:55:26.264Z,14.33
2022-11-04T02:57:56.690Z,14.13
2022-11-04T03:00:25.937Z,14.03
2022-11-04T03:02:55.094Z,14.37
2022-11-04T03:05:24.212Z,13.93
2022-11-04T03:07:52.671Z,13.80
2022-11-04T03:10:21.428Z,15.10
2022-11-04T03:12:51.185Z,14.23
2022-11-04T03:15:21.007Z,14.10
2022-11-04T03:17:51.918Z,14.57
2022-11-04T03:20:22.018Z,13.53
2022-11-04T03:22:50.159Z,14.20
2022-11-04T03:25:18.099Z,14.27
2022-11-04T03:27:48.507Z,15.03
2022-11-04T03:32:55.373Z,14.10
2022-11-04T03:35:22.986Z,14.57
2022-11-04T03:37:50.489Z,13.13
2022-11-04T03:40:18.923Z,13.60
2022-11-04T03:42:49.779Z,13.63
2022-11-04T03:45:17.713Z,13.90
2022-11-04T03:47:45.353Z,12.70
2022-11-04T03:50:18.949Z,14.90
2022-11-04T03:52:46.712Z,14.60
2022-11-04T03:55:14.459Z,15.17
2022-11-04T03:57:47.508Z,13.73
2022-11-04T04:00:16.018Z,13.93
2022-11-04T04:02:51.105Z,14.40
2022-11-04T04:05:23.289Z,13.83
2022-11-04T04:07:52.815Z,13.63
2022-11-04T04:10:43.015Z,14.47
2022-11-04T04:13:22.674Z,13.60
2022-11-04T04:15:53.691Z,14.00
2022-11-04T04:18:26.084Z,12.83
2022-11-04T04:20:56.809Z,14.13
2022-11-04T04:23:44.859Z,14.20
2022-11-04T04:26:30.801Z,14.40
2022-11-04T04:29:01.950Z,13.57
2022-11-04T04:31:48.408Z,13.30
2022-11-04T04:34:16.714Z,12.87
2022-11-04T04:36:47.280Z,13.37
2022-11-04T04:39:34.191Z,13.97
2022-11-04T04:42:28.268Z,13.87
2022-11-04T04:45:03.183Z,14.20
2022-11-04T04:47:34.473Z,14.47
2022-11-04T04:50:02.639Z,12.57
2022-11-04T04:52:33.279Z,13.70
2022-11-04T04:55:01.252Z,13.50
2022-11-04T04:57:28.913Z,13.37
2022-11-04T04:59:56.632Z,12.83
2022-11-04T05:02:24.822Z,13.80
2022-11-04T05:04:52.636Z,13.07
2022-11-04T05:07:20.225Z,12.57
2022-11-04T05:09:49.762Z,13.67
2022-11-04T05:12:17.293Z,14.23
2022-11-04T05:14:45.037Z,13.70
2022-11-04T05:17:12.620Z,14.43
2022-11-04T05:19:41.769Z,14.60
2022-11-04T05:22:09.291Z,13.37
2022-11-04T05:24:37.097Z,13.60
2022-11-04T05:27:06.152Z,14.40
2022-11-04T05:29:33.831Z,14.20
2022-11-04T05:32:01.497Z,16.23
2022-11-04T05:34:29.037Z,13.70
2022-11-04T05:36:56.593Z,14.83
2022-11-04T05:39:24.269Z,14.83
2022-11-04T05:41:51.744Z,14.07
2022-11-04T05:44:20.588Z,15.00
2022-11-04T05:46:48.814Z,14.50
2022-11-04T05:49:16.264Z,13.83
2022-11-04T05:51:44.480Z,14.83
2022-11-04T05:54:15.105Z,15.53
2022-11-04T05:56:42.718Z,15.50
2022-11-04T05:59:10.229Z,14.77
2022-11-04T06:01:40.696Z,14.90
2022-11-04T06:04:15.244Z,14.23
2022-11-04T06:06:42.987Z,15.93
2022-11-04T06:09:10.760Z,16.23
2022-11-04T06:11:39.422Z,15.60
2022-11-04T06:14:07.525Z,17.30
2022-11-04T06:16:35.409Z,16.47
2022-11-04T06:19:08.588Z,18.00
2022-11-04T06:21:39.717Z,15.93
2022-11-04T06:24:07.197Z,15.23
2022-11-04T06:26:35.300Z,16.87
2022-11-04T06:29:03.008Z,15.87
2022-11-04T06:31:30.502Z,16.67
2022-11-04T06:33:58.048Z,15.67
2022-11-04T06:36:29.047Z,16.57
2022-11-04T06:39:01.395Z,15.90
2022-11-04T06:41:32.448Z,17.13
2022-11-04T06:43:59.895Z,16.67
2022-11-04T06:46:28.793Z,15.90
2022-11-04T06:48:56.903Z,16.13
2022-11-04T06:51:24.724Z,17.07
2022-11-04T06:53:53.712Z,15.80
2022-11-04T06:56:21.946Z,16.20
2022-11-04T06:58:49.837Z,16.80
2022-11-04T07:01:21.855Z,16.77
2022-11-04T07:03:50.574Z,15.97
2022-11-04T07:06:18.189Z,16.40
2022-11-04T07:08:45.836Z,16.17
2022-11-04T07:11:14.919Z,16.60
2022-11-04T07:13:42.724Z,17.80
2022-11-04T07:16:10.723Z,18.60
2022-11-04T07:18:38.815Z,17.23
2022-11-04T07:21:09.916Z,18.20
2022-11-04T07:23:38.309Z,18.63
2022-11-04T07:26:07.501Z,18.53
2022-11-04T07:28:36.941Z,18.93
2022-11-04T07:31:05.951Z,20.37
2022-11-04T07:33:33.996Z,21.67
2022-11-04T07:36:04.910Z,22.30
2022-11-04T07:38:32.635Z,21.07
2022-11-04T07:41:00.466Z,22.27
2022-11-04T07:43:28.218Z,23.00
2022-11-04T07:46:04.799Z,22.63
2022-11-04T07:48:32.314Z,22.60
2022-11-04T07:51:00.525Z,23.90
2022-11-04T07:53:28.745Z,25.73
2022-11-04T07:55:56.352Z,27.50
2022-11-04T07:58:24.191Z,27.90
2022-11-04T08:00:52.473Z,26.30
2022-11-04T08:03:21.346Z,25.80
2022-11-04T08:05:55.470Z,25.50
2022-11-04T08:08:22.993Z,25.23
2022-11-04T08:10:52.918Z,25.57
2022-11-04T08:13:20.690Z,25.10
2022-11-04T08:15:48.191Z,24.60
2022-11-04T08:18:16.054Z,23.43
2022-11-04T08:20:50.103Z,24.43
2022-11-04T08:23:18.427Z,24.20
2022-11-04T08:25:45.952Z,22.37
2022-11-04T08:28:17.799Z,24.27
2022-11-04T08:30:55.259Z,24.50
2022-11-04T08:33:23.161Z,23.87
2022-11-04T08:35:52.106Z,24.03
2022-11-04T08:38:19.955Z,23.77
2022-11-04T08:40:47.676Z,20.93
2022-11-04T08:43:15.322Z,22.83
2022-11-04T08:45:43.565Z,21.90
2022-11-04T08:48:11.601Z,21.80
2022-11-04T08:50:39.826Z,21.13
2022-11-04T08:53:09.169Z,20.70
2022-11-04T08:55:37.038Z,19.50
2022-11-04T08:58:04.566Z,18.87
2022-11-04T09:00:33.023Z,18.43
2022-11-04T09:03:00.629Z,17.40
2022-11-04T09:05:28.670Z,15.93
2022-11-04T09:07:56.387Z,16.80
2022-11-04T09:10:25.266Z,15.97
2022-11-04T09:12:52.777Z,16.40
2022-11-04T09:15:20.707Z,15.40
2022-11-04T09:17:48.517Z,14.73
2022-11-04T09:20:16.360Z,14.50
2022-11-04T09:22:46.056Z,15.30
2022-11-04T09:25:13.822Z,15.17
2022-11-04T09:27:42.627Z,14.53
2022-11-04T09:30:11.394Z,14.70
2022-11-04T09:32:39.244Z,15.07
2022-11-04T09:35:06.892Z,15.33
2022-11-04T09:37:34.498Z,14.47
2022-11-04T09:40:02.279Z,14.50
2022-11-04T09:42:36.928Z,14.97
2022-11-04T09:45:25.507Z,14.27
2022-11-04T09:47:56.370Z,12.77
2022-11-04T09:50:24.783Z,13.37
2022-11-04T09:52:55.131Z,13.73
2022-11-04T09:55:26.025Z,13.63
2022-11-04T09:57:55.309Z,13.00
2022-11-04T10:00:24.417Z,12.50
2022-11-04T10:02:54.992Z,12.43
2022-11-04T10:05:30.222Z,12.80
2022-11-04T10:08:05.963Z,12.77
2022-11-04T10:10:38.125Z,12.90
2022-11-04T10:13:16.768Z,14.27
2022-11-04T10:15:55.461Z,14.53
2022-11-04T10:18:30.389Z,14.67
2022-11-04T10:21:01.175Z,19.00
2022-11-04T10:23:33.647Z,14.00
2022-11-04T10:26:07.736Z,13.67
2022-11-04T10:28:39.397Z,12.50
2022-11-04T10:31:09.458Z,14.97
2022-11-04T10:33:40.128Z,13.40
2022-11-04T10:36:08.708Z,15.23
2022-11-04T10:38:38.655Z,15.67
2022-11-04T10:41:16.377Z,15.17
2022-11-04T10:43:43.901Z,14.73
2022-11-04T10:46:21.436Z,14.83
2022-11-04T10:48:51.194Z,17.53
2022-11-04T10:51:22.319Z,16.40
2022-11-04T10:53:51.740Z,16.60
2022-11-04T10:56:23.911Z,15.10
2022-11-04T10:58:52.471Z,15.53
2022-11-04T11:01:26.337Z,16.10
2022-11-04T11:03:54.368Z,18.50
2022-11-04T11:06:24.957Z,19.07
2022-11-04T11:08:53.645Z,18.37
2022-11-04T11:11:36.169Z,19.30
2022-11-04T11:14:04.018Z,17.30
2022-11-04T11:16:32.814Z,16.03
2022-11-04T11:19:09.654Z,16.30
2022-11-04T11:21:43.384Z,16.10
2022-11-04T11:24:16.999Z,16.27
2022-11-04T11:26:48.501Z,16.00
2022-11-04T11:29:21.392Z,16.57
2022-11-04T11:31:51.866Z,16.50
2022-11-04T11:34:22.746Z,16.33
2022-11-04T11:36:50.846Z,16.40
2022-11-04T11:39:22.037Z,17.83
2022-11-04T11:41:53.422Z,16.80
2022-11-04T11:44:24.388Z,19.17
2022-11-04T11:46:56.166Z,16.43
2022-11-04T11:49:25.672Z,17.97
2022-11-04T11:51:53.416Z,18.30
2022-11-04T11:54:23.921Z,18.40
2022-11-04T11:57:12.672Z,18.70
2022-11-04T12:02:46.770Z,20.40
2022-11-04T12:11:00.340Z,19.80
2022-11-04T12:13:30.205Z,19.93
2022-11-04T12:16:07.492Z,20.40
2022-11-04T12:18:46.009Z,20.33
2022-11-04T12:21:15.988Z,18.60
2022-11-04T12:23:47.239Z,22.53
2022-11-04T12:26:19.583Z,23.67
2022-11-04T12:28:54.428Z,23.17
2022-11-04T12:31:26.223Z,21.17
2022-11-04T12:34:02.399Z,20.90
2022-11-04T12:36:43.836Z,19.87
2022-11-04T12:39:19.796Z,19.70
2022-11-04T12:44:44.665Z,18.73
2022-11-04T12:47:19.016Z,19.00
2022-11-04T12:49:54.215Z,19.27
2022-11-04T12:52:31.546Z,19.63
2022-11-04T12:55:07.092Z,20.10
2022-11-04T12:57:37.831Z,21.33
2022-11-04T13:00:09.385Z,19.73
2022-11-04T13:02:39.712Z,19.43
2022-11-04T13:05:10.606Z,17.97
2022-11-04T13:07:41.058Z,19.13
2022-11-04T13:10:13.369Z,19.60
2022-11-04T13:12:43.747Z,18.77
2022-11-04T13:15:16.352Z,16.17
2022-11-04T13:17:45.304Z,16.13
2022-11-04T13:20:21.775Z,15.80
2022-11-04T13:22:51.198Z,16.67
2022-11-04T13:25:22.100Z,17.70
2022-11-04T13:27:49.865Z,17.50
2022-11-04T13:30:22.338Z,18.33
2022-11-04T13:32:54.174Z,17.17
2022-11-04T13:35:27.428Z,15.83
2022-11-04T13:37:59.008Z,16.30
2022-11-04T13:40:28.746Z,17.30
2022-11-04T13:43:17.879Z,16.30
2022-11-04T13:45:47.466Z,16.53
2022-11-04T13:48:19.247Z,16.10
2022-11-04T13:50:56.120Z,16.47
2022-11-04T13:53:40.819Z,16.27
2022-11-04T13:56:31.746Z,17.53
2022-11-04T13:58:57.724Z,16.27
2022-11-04T14:01:29.229Z,17.90
2022-11-04T14:04:03.237Z,18.20
2022-11-04T14:06:50.078Z,17.87
2022-11-04T14:09:33.424Z,18.70
2022-11-04T14:12:20.491Z,20.20
2022-11-04T14:14:49.425Z,20.60
2022-11-04T14:17:31.992Z,20.20
2022-11-04T14:20:00.811Z,22.77
2022-11-04T14:22:32.973Z,21.10
2022-11-04T14:25:03.121Z,20.00
2022-11-04T14:27:40.008Z,19.07
2022-11-04T14:30:09.149Z,19.60
2022-11-04T14:32:40.668Z,20.03
2022-11-04T14:35:09.205Z,19.73
2022-11-04T14:37:37.058Z,19.70
2022-11-04T14:40:08.139Z,20.83
2022-11-04T14:42:44.065Z,22.80
2022-11-04T14:45:16.403Z,21.93
2022-11-04T14:47:47.839Z,22.63
2022-11-04T14:50:18.251Z,22.83
2022-11-04T14:52:47.567Z,21.80
2022-11-04T14:55:18.351Z,20.70
2022-11-04T14:57:47.657Z,21.63
2022-11-04T15:00:26.441Z,23.00
2022-11-04T15:03:01.099Z,20.90
2022-11-04T15:05:29.475Z,20.53
2022-11-04T15:07:56.964Z,20.83
2022-11-04T15:10:27.331Z,20.57
2022-11-04T15:13:00.292Z,21.77
2022-11-04T15:15:29.924Z,21.60
2022-11-04T15:18:03.540Z,20.80
2022-11-04T15:20:33.343Z,20.60
2022-11-04T15:23:02.280Z,20.07
2022-11-04T15:25:32.950Z,21.20
2022-11-04T15:28:01.005Z,18.90
2022-11-04T15:30:30.854Z,20.10
2022-11-04T15:33:00.158Z,19.77
2022-11-04T15:35:29.052Z,19.90
2022-11-04T15:37:57.808Z,18.43
2022-11-04T15:40:27.997Z,17.63
2022-11-04T15:42:56.710Z,17.10
2022-11-04T15:45:29.501Z,16.97
2022-11-04T15:48:15.321Z,20.23
2022-11-04T15:50:43.327Z,18.20
2022-11-04T15:53:11.457Z,17.13
2022-11-04T15:55:40.997Z,18.37
2022-11-04T15:58:14.201Z,17.10
2022-11-04T16:00:42.066Z,17.80
2022-11-04T16:03:18.508Z,17.77
2022-11-04T16:06:00.956Z,17.10
2022-11-04T16:08:29.904Z,17.57
2022-11-04T16:11:09.579Z,17.70
2022-11-04T16:13:38.826Z,18.30
2022-11-04T16:16:09.291Z,18.37
2022-11-04T16:18:38.059Z,20.80
2022-11-04T16:21:07.177Z,19.73
2022-11-04T16:23:38.906Z,19.43
2022-11-04T16:26:07.991Z,17.13
2022-11-04T16:28:36.729Z,18.80
2022-11-04T16:31:06.701Z,18.00
2022-11-04T16:33:34.724Z,16.57
2022-11-04T16:36:02.326Z,16.33
2022-11-04T16:38:56.930Z,17.67
2022-11-04T16:41:25.472Z,15.47
2022-11-04T16:43:53.371Z,16.97
2022-11-04T16:46:23.159Z,16.87
2022-11-04T16:48:50.786Z,15.93
2022-11-04T16:51:19.471Z,17.67
2022-11-04T16:53:49.061Z,16.13
2022-11-04T16:56:16.943Z,16.77
2022-11-04T16:58:44.772Z,16.37
2022-11-04T17:01:14.535Z,16.80
2022-11-04T17:03:44.157Z,16.30
2022-11-04T17:06:12.207Z,15.87
2022-11-04T17:08:40.235Z,16.10
2022-11-04T17:11:07.871Z,15.20
2022-11-04T17:13:36.688Z,15.50
2022-11-04T17:16:04.990Z,14.90
2022-11-04T17:18:33.385Z,15.03
2022-11-04T17:21:06.015Z,15.30
2022-11-04T17:23:34.949Z,15.30
2022-11-04T17:26:03.252Z,14.33
2022-11-04T17:28:31.566Z,15.00
2022-11-04T17:30:59.087Z,16.00
2022-11-04T17:33:26.690Z,14.40
2022-11-04T17:35:54.581Z,14.63
2022-11-04T17:38:23.640Z,15.73
2022-11-04T17:41:08.940Z,16.60
2022-11-04T17:43:53.907Z,15.73
2022-11-04T17:46:38.292Z,15.07
2022-11-04T17:49:07.544Z,15.07
2022-11-04T17:51:35.361Z,15.17
2022-11-04T17:54:05.138Z,14.93
2022-11-04T17:56:32.925Z,16.10
2022-11-04T17:59:01.477Z,15.37
2022-11-04T18:01:29.688Z,15.17
2022-11-04T18:03:58.019Z,15.23
2022-11-04T18:06:26.517Z,17.27
2022-11-04T18:08:54.891Z,15.20
2022-11-04T18:11:41.964Z,16.83
2022-11-04T18:14:16.248Z,16.10
2022-11-04T18:16:44.920Z,15.47
2022-11-04T18:19:13.092Z,16.17
2022-11-04T18:21:40.641Z,15.90
2022-11-04T18:24:08.557Z,16.13
2022-11-04T18:26:37.977Z,16.70
2022-11-04T18:29:05.825Z,15.93
2022-11-04T18:31:34.361Z,14.93
2022-11-04T18:34:02.856Z,17.67
2022-11-04T18:36:31.635Z,18.83
2022-11-04T18:38:59.097Z,15.70
2022-11-04T18:41:27.334Z,16.40
2022-11-04T18:43:56.297Z,17.70
2022-11-04T18:46:24.159Z,18.03
2022-11-04T18:48:52.444Z,17.07
2022-11-04T18:51:21.933Z,16.80
2022-11-04T18:53:50.000Z,16.83
2022-11-04T18:56:18.630Z,16.40
2022-11-04T18:58:46.764Z,16.90
2022-11-04T19:01:18.268Z,17.40
2022-11-04T19:03:46.596Z,17.53
2022-11-04T19:06:17.038Z,16.57
2022-11-04T19:08:46.871Z,20.40
2022-11-04T19:11:16.110Z,19.10
2022-11-04T19:13:43.922Z,18.70
2022-11-04T19:16:12.696Z,19.37
2022-11-04T19:18:41.989Z,19.80
2022-11-04T19:21:10.345Z,18.47
2022-11-04T19:23:38.353Z,19.43
2022-11-04T19:26:09.549Z,20.00
2022-11-04T19:28:47.622Z,22.57
2022-11-04T19:31:17.998Z,22.60
2022-11-04T19:33:47.305Z,21.83
2022-11-04T19:36:16.289Z,21.73
2022-11-04T19:38:45.768Z,23.33
2022-11-04T19:41:28.854Z,22.83
2022-11-04T19:43:57.141Z,20.80
2022-11-04T19:46:24.941Z,18.90
2022-11-04T19:48:53.937Z,17.50
2022-11-04T19:51:21.772Z,19.03
2022-11-04T19:53:49.531Z,18.60
2022-11-04T19:56:17.527Z,19.57
2022-11-04T19:58:45.811Z,19.23
2022-11-04T20:01:14.765Z,20.60
2022-11-04T20:03:44.791Z,21.20
2022-11-04T20:06:15.168Z,20.43
2022-11-04T20:08:43.981Z,20.43
2022-11-04T20:11:11.539Z,22.50
2022-11-04T20:13:44.554Z,21.53
2022-11-04T20:16:13.621Z,21.80
2022-11-04T20:18:41.102Z,21.17
2022-11-04T20:21:09.012Z,20.57
2022-11-04T20:23:37.823Z,21.77
2022-11-04T20:26:12.082Z,21.20
2022-11-04T20:28:43.490Z,20.97
2022-11-04T20:31:12.184Z,19.77
2022-11-04T20:33:40.192Z,19.30
2022-11-04T20:36:08.480Z,20.47
2022-11-04T20:38:38.361Z,20.40
2022-11-04T20:41:07.559Z,18.50
2022-11-04T20:43:36.107Z,21.07
2022-11-04T20:46:05.209Z,21.10
2022-11-04T20:48:33.436Z,22.70
2022-11-04T20:51:06.028Z,21.33
2022-11-04T20:53:33.929Z,22.87
2022-11-04T20:56:06.599Z,31.70
2022-11-04T20:58:34.925Z,22.27
2022-11-04T21:01:03.172Z,20.77
2022-11-04T21:03:31.537Z,22.87
2022-11-04T21:05:59.230Z,20.07
2022-11-04T21:08:27.272Z,24.13
2022-11-04T21:10:56.356Z,22.53
2022-11-04T21:13:25.361Z,21.00
2022-11-04T21:15:53.317Z,20.83
2022-11-04T21:18:21.016Z,20.50
2022-11-04T21:20:49.548Z,21.23
2022-11-04T21:23:17.729Z,21.03
2022-11-04T21:25:46.654Z,22.87
2022-11-04T21:28:14.477Z,19.70
2022-11-04T21:30:44.623Z,19.23
2022-11-04T21:33:12.415Z,19.00
2022-11-04T21:35:41.209Z,18.43
2022-11-04T21:38:09.618Z,22.50
2022-11-04T21:40:37.374Z,20.80
2022-11-04T21:43:04.923Z,23.07
2022-11-04T21:45:32.461Z,21.67
2022-11-04T21:48:01.791Z,26.27
2022-11-04T21:50:29.398Z,25.17
2022-11-04T21:53:01.273Z,25.20
2022-11-04T21:55:28.753Z,24.83
2022-11-04T21:58:05.879Z,23.63
2022-11-04T22:00:33.527Z,23.30
2022-11-04T22:03:02.570Z,24.37
2022-11-04T22:05:30.522Z,22.57
2022-11-04T22:08:15.661Z,23.60
2022-11-04T22:10:44.244Z,28.83
2022-11-04T22:13:12.072Z,22.57
2022-11-04T22:16:01.697Z,23.67
2022-11-04T22:18:31.658Z,23.40
2022-11-04T22:21:02.970Z,24.53
2022-11-04T22:23:30.682Z,25.37
2022-11-04T22:26:01.436Z,25.07
2022-11-04T22:28:29.538Z,23.67
2022-11-04T22:30:57.322Z,23.70
2022-11-04T22:33:30.448Z,22.17
2022-11-04T22:36:00.797Z,21.30
2022-11-04T22:38:28.352Z,20.17
2022-11-04T22:40:57.414Z,21.70
2022-11-04T22:43:25.375Z,22.10
2022-11-04T22:45:53.507Z,20.17
2022-11-04T22:48:21.187Z,20.30
2022-11-04T22:50:56.842Z,20.40
2022-11-04T22:53:26.057Z,21.20
2022-11-04T22:55:53.962Z,23.47
2022-11-04T22:58:21.683Z,22.13
2022-11-04T23:00:54.601Z,21.47
2022-11-04T23:03:22.796Z,21.80
2022-11-04T23:05:54.175Z,20.70
2022-11-04T23:08:21.733Z,20.20
2022-11-04T23:11:08.518Z,21.07
2022-11-04T23:13:53.963Z,20.83
2022-11-04T23:16:40.678Z,18.70
2022-11-04T23:19:08.317Z,20.20
2022-11-04T23:21:53.601Z,19.40
2022-11-04T23:24:39.228Z,20.40
2022-11-04T23:27:08.951Z,18.03
2022-11-04T23:29:53.859Z,19.83
2022-11-04T23:32:27.005Z,18.27
2022-11-04T23:35:12.909Z,18.40
2022-11-04T23:37:41.872Z,18.97
2022-11-04T23:40:09.999Z,18.60
2022-11-04T23:42:39.059Z,19.33
2022-11-04T23:45:24.524Z,19.63
2022-11-04T23:48:14.079Z,18.67
2022-11-04T23:50:59.767Z,17.90
2022-11-04T23:53:45.096Z,17.40
2022-11-04T23:56:30.754Z,16.80
2022-11-04T23:59:17.540Z,18.00
